createdAt,value
2017-04-05T00:00:19.224Z,12.43
2017-04-05T00:01:17.786Z,12.37
2017-04-05T00:02:16.291Z,10.17
2017-04-05T00:03:14.840Z,12.22
2017-04-05T00:04:13.350Z,13.32
2017-04-05T00:05:11.927Z,12.20
2017-04-05T00:06:10.467Z,12.13
2017-04-05T00:07:09.130Z,10.72
2017-04-05T00:08:07.772Z,13.65
2017-04-05T00:09:06.389Z,10.95
2017-04-05T00:10:04.987Z,11.70
2017-04-05T00:11:03.524Z,12.35
2017-04-05T00:12:02.163Z,12.10
2017-04-05T00:13:00.679Z,12.05
2017-04-05T00:13:59.222Z,10.87
2017-04-05T00:14:57.752Z,11.13
2017-04-05T00:15:56.328Z,13.08
2017-04-05T00:16:54.879Z,11.33
2017-04-05T00:17:53.400Z,12.53
2017-04-05T00:18:51.910Z,11.77
2017-04-05T00:19:50.510Z,10.57
2017-04-05T00:20:49.050Z,11.18
2017-04-05T00:21:47.619Z,12.48
2017-04-05T00:22:46.114Z,12.28
2017-04-05T00:23:44.707Z,11.38
2017-04-05T00:24:43.215Z,12.13
2017-04-05T00:25:41.763Z,12.80
2017-04-05T00:26:40.262Z,13.63
2017-04-05T00:27:38.814Z,11.15
2017-04-05T00:28:37.362Z,11.38
2017-04-05T00:29:35.898Z,11.85
2017-04-05T00:30:34.416Z,11.90
2017-04-05T00:31:33.135Z,12.15
2017-04-05T00:32:31.898Z,11.80
2017-04-05T00:33:30.578Z,12.90
2017-04-05T00:34:29.175Z,10.68
2017-04-05T00:35:27.763Z,11.35
2017-04-05T00:36:26.386Z,12.37
2017-04-05T00:37:24.894Z,11.07
2017-04-05T00:38:23.407Z,14.37
2017-04-05T00:39:21.931Z,10.77
2017-04-05T00:40:20.495Z,11.50
2017-04-05T00:41:19.024Z,10.68
2017-04-05T00:42:17.561Z,11.68
2017-04-05T00:43:16.098Z,13.30
2017-04-05T00:44:14.635Z,11.85
2017-04-05T00:45:13.199Z,10.33
2017-04-05T00:46:11.803Z,10.72
2017-04-05T00:47:10.326Z,10.77
2017-04-05T00:48:08.939Z,10.40
2017-04-05T00:49:07.527Z,11.25
2017-04-05T00:50:06.083Z,11.02
2017-04-05T00:51:04.651Z,11.18
2017-04-05T00:52:03.219Z,12.32
2017-04-05T00:53:01.763Z,11.52
2017-04-05T00:54:00.282Z,11.35
2017-04-05T00:54:58.879Z,10.45
2017-04-05T00:55:57.490Z,11.05
2017-04-05T00:56:55.998Z,12.23
2017-04-05T00:57:54.585Z,12.35
2017-04-05T00:58:53.125Z,10.43
2017-04-05T00:59:51.641Z,12.48
2017-04-05T01:00:50.159Z,10.93
2017-04-05T01:01:48.730Z,10.98
2017-04-05T01:02:47.253Z,11.87
2017-04-05T01:03:45.754Z,11.85
2017-04-05T01:04:44.263Z,11.05
2017-04-05T01:05:42.764Z,10.02
2017-04-05T01:06:41.331Z,10.73
2017-04-05T01:07:39.838Z,11.90
2017-04-05T01:08:38.362Z,12.42
2017-04-05T01:09:36.871Z,10.90
2017-04-05T01:10:35.430Z,11.18
2017-04-05T01:11:33.931Z,10.72
2017-04-05T01:12:32.487Z,12.28
2017-04-05T01:13:31.010Z,9.82
2017-04-05T01:14:29.495Z,11.85
2017-04-05T01:15:28.112Z,10.78
2017-04-05T01:16:26.636Z,10.12
2017-04-05T01:17:25.199Z,10.12
2017-04-05T01:18:23.766Z,10.95
2017-04-05T01:19:22.276Z,11.32
2017-04-05T01:20:20.851Z,10.52
2017-04-05T01:21:19.458Z,11.77
2017-04-05T01:22:18.016Z,11.42
2017-04-05T01:23:16.554Z,10.77
2017-04-05T01:24:15.150Z,8.87
2017-04-05T01:25:13.656Z,11.63
2017-04-05T01:26:12.186Z,12.58
2017-04-05T01:27:10.700Z,10.13
2017-04-05T01:28:09.263Z,11.33
2017-04-05T01:29:07.880Z,12.05
2017-04-05T01:30:06.364Z,11.52
2017-04-05T01:31:04.863Z,11.72
2017-04-05T01:32:03.401Z,12.15
2017-04-05T01:33:01.927Z,10.82
2017-04-05T01:34:00.467Z,12.17
2017-04-05T01:34:59.038Z,10.65
2017-04-05T01:35:57.547Z,9.62
2017-04-05T01:36:56.073Z,12.20
2017-04-05T01:37:54.579Z,10.38
2017-04-05T01:38:53.115Z,11.30
2017-04-05T01:39:51.637Z,10.48
2017-04-05T01:40:50.194Z,10.40
2017-04-05T01:41:48.739Z,9.67
2017-04-05T01:42:47.230Z,9.87
2017-04-05T01:43:45.922Z,12.00
2017-04-05T01:44:44.419Z,10.58
2017-04-05T01:45:42.975Z,10.60
2017-04-05T01:46:41.488Z,11.28
2017-04-05T01:47:39.975Z,9.42
2017-04-05T01:48:38.523Z,11.00
2017-04-05T01:49:37.035Z,15.28
2017-04-05T01:50:35.612Z,11.72
2017-04-05T01:51:34.142Z,11.65
2017-04-05T01:52:32.693Z,11.10
2017-04-05T01:53:31.203Z,11.27
2017-04-05T01:54:29.935Z,11.52
2017-04-05T01:55:28.495Z,10.08
2017-04-05T01:56:26.992Z,12.25
2017-04-05T01:57:25.476Z,10.43
2017-04-05T01:58:23.996Z,10.78
2017-04-05T01:59:22.602Z,10.97
2017-04-05T02:00:21.172Z,9.70
2017-04-05T02:01:19.912Z,10.70
2017-04-05T02:02:18.578Z,10.15
2017-04-05T02:03:17.188Z,11.22
2017-04-05T02:04:15.794Z,9.70
2017-04-05T02:05:14.415Z,10.38
2017-04-05T02:06:12.979Z,12.55
2017-04-05T02:07:11.506Z,11.00
2017-04-05T02:08:10.191Z,10.43
2017-04-05T02:09:08.879Z,11.27
2017-04-05T02:10:07.503Z,10.92
2017-04-05T02:11:06.087Z,11.62
2017-04-05T02:12:04.751Z,10.75
2017-04-05T02:13:03.347Z,9.80
2017-04-05T02:14:01.879Z,9.25
2017-04-05T02:15:00.398Z,10.03
2017-04-05T02:15:58.895Z,9.78
2017-04-05T02:16:57.418Z,10.72
2017-04-05T02:17:55.907Z,10.32
2017-04-05T02:18:54.443Z,11.48
2017-04-05T02:19:53.110Z,10.02
2017-04-05T02:20:51.714Z,9.97
2017-04-05T02:21:50.206Z,9.72
2017-04-05T02:22:48.834Z,9.90
2017-04-05T02:23:47.499Z,10.20
2017-04-05T02:24:46.095Z,10.60
2017-04-05T02:25:44.650Z,9.37
2017-04-05T02:26:43.242Z,10.85
2017-04-05T02:27:41.758Z,11.18
2017-04-05T02:28:40.303Z,11.38
2017-04-05T02:29:38.818Z,11.13
2017-04-05T02:30:37.331Z,9.62
2017-04-05T02:31:35.927Z,9.50
2017-04-05T02:32:34.563Z,10.27
2017-04-05T02:33:33.098Z,10.92
2017-04-05T02:34:31.612Z,10.20
2017-04-05T02:35:30.220Z,10.43
2017-04-05T02:36:28.823Z,10.57
2017-04-05T02:37:27.490Z,10.23
2017-04-05T02:38:26.087Z,9.92
2017-04-05T02:39:24.594Z,11.20
2017-04-05T02:40:23.066Z,11.12
2017-04-05T02:41:21.594Z,11.75
2017-04-05T02:42:20.127Z,9.30
2017-04-05T02:43:18.835Z,10.28
2017-04-05T02:44:17.349Z,9.88
2017-04-05T02:45:15.978Z,11.07
2017-04-05T02:46:14.626Z,10.22
2017-04-05T02:47:13.167Z,10.30
2017-04-05T02:48:11.703Z,10.45
2017-04-05T02:49:10.334Z,12.17
2017-04-05T02:50:08.890Z,10.13
2017-04-05T02:51:07.410Z,10.97
2017-04-05T02:52:05.907Z,9.90
2017-04-05T02:53:04.508Z,12.60
2017-04-05T02:54:02.999Z,11.35
2017-04-05T02:55:01.508Z,11.25
2017-04-05T02:56:00.017Z,10.92
2017-04-05T02:56:58.599Z,9.63
2017-04-05T02:57:57.106Z,12.13
2017-04-05T02:58:55.615Z,11.98
2017-04-05T02:59:54.167Z,9.90
2017-04-05T03:00:52.795Z,10.30
2017-04-05T03:01:51.291Z,9.75
2017-04-05T03:02:49.783Z,11.67
2017-04-05T03:03:48.335Z,11.00
2017-04-05T03:04:46.955Z,11.53
2017-04-05T03:05:45.519Z,11.52
2017-04-05T03:06:44.038Z,10.20
2017-04-05T03:07:42.538Z,10.83
2017-04-05T03:08:41.042Z,11.80
2017-04-05T03:09:39.562Z,9.92
2017-04-05T03:10:38.071Z,11.20
2017-04-05T03:11:36.619Z,10.97
2017-04-05T03:12:35.251Z,10.45
2017-04-05T03:13:33.795Z,10.48
2017-04-05T03:14:32.379Z,9.67
2017-04-05T03:15:30.901Z,11.45
2017-04-05T03:16:29.428Z,9.48
2017-04-05T03:17:27.949Z,11.43
2017-04-05T03:18:26.466Z,10.13
2017-04-05T03:19:25.080Z,10.08
2017-04-05T03:20:24.475Z,10.10
2017-04-05T03:21:22.971Z,9.33
2017-04-05T03:22:21.549Z,9.87
2017-04-05T03:23:20.219Z,9.72
2017-04-05T03:24:18.798Z,11.10
2017-04-05T03:25:17.343Z,10.33
2017-04-05T03:26:15.841Z,9.02
2017-04-05T03:27:14.382Z,9.62
2017-04-05T03:28:13.179Z,9.08
2017-04-05T03:29:11.700Z,10.08
2017-04-05T03:30:10.212Z,9.93
2017-04-05T03:31:08.723Z,9.68
2017-04-05T03:32:07.255Z,9.45
2017-04-05T03:33:05.799Z,11.80
2017-04-05T03:34:04.327Z,9.28
2017-04-05T03:35:02.895Z,9.82
2017-04-05T03:36:01.512Z,10.83
2017-04-05T03:37:00.032Z,9.30
2017-04-05T03:37:58.531Z,9.30
2017-04-05T03:38:57.142Z,8.67
2017-04-05T03:39:55.643Z,9.05
2017-04-05T03:40:54.155Z,10.20
2017-04-05T03:41:52.996Z,8.95
2017-04-05T03:42:51.674Z,9.13
2017-04-05T03:43:50.292Z,10.20
2017-04-05T03:44:48.913Z,9.52
2017-04-05T03:45:47.383Z,9.57
2017-04-05T03:46:45.957Z,10.27
2017-04-05T03:47:44.462Z,10.15
2017-04-05T03:48:42.967Z,9.48
2017-04-05T03:49:41.451Z,10.92
2017-04-05T03:50:39.987Z,9.25
2017-04-05T03:51:38.483Z,10.20
2017-04-05T03:52:37.210Z,9.90
2017-04-05T03:53:35.724Z,9.90
2017-04-05T03:54:34.345Z,9.22
2017-04-05T03:55:32.934Z,9.57
2017-04-05T03:56:31.428Z,9.40
2017-04-05T03:57:29.936Z,9.27
2017-04-05T03:58:28.483Z,11.08
2017-04-05T03:59:27.083Z,9.10
2017-04-05T04:00:25.808Z,12.72
2017-04-05T04:01:24.351Z,10.85
2017-04-05T04:02:22.886Z,10.45
2017-04-05T04:03:21.433Z,9.87
2017-04-05T04:04:19.944Z,9.78
2017-04-05T04:05:18.438Z,9.58
2017-04-05T04:06:16.926Z,10.33
2017-04-05T04:07:15.423Z,8.90
2017-04-05T04:08:13.934Z,10.78
2017-04-05T04:09:12.572Z,10.07
2017-04-05T04:10:11.216Z,9.70
2017-04-05T04:11:09.696Z,10.18
2017-04-05T04:12:08.298Z,9.77
2017-04-05T04:13:06.871Z,10.60
2017-04-05T04:14:05.409Z,10.40
2017-04-05T04:15:03.972Z,10.33
2017-04-05T04:16:02.604Z,10.00
2017-04-05T04:17:01.198Z,9.85
2017-04-05T04:17:59.791Z,10.47
2017-04-05T04:18:58.318Z,9.00
2017-04-05T04:19:56.826Z,11.03
2017-04-05T04:20:55.316Z,12.85
2017-04-05T04:21:53.843Z,13.53
2017-04-05T04:22:52.414Z,13.05
2017-04-05T04:23:50.925Z,10.13
2017-04-05T04:24:49.408Z,11.20
2017-04-05T04:25:47.923Z,11.28
2017-04-05T04:26:46.444Z,10.23
2017-04-05T04:27:44.935Z,9.62
2017-04-05T04:28:43.467Z,10.13
2017-04-05T04:29:41.969Z,10.55
2017-04-05T04:30:40.855Z,10.10
2017-04-05T04:31:39.383Z,9.93
2017-04-05T04:32:38.018Z,11.83
2017-04-05T04:33:36.573Z,10.37
2017-04-05T04:34:35.151Z,10.43
2017-04-05T04:35:33.719Z,9.65
2017-04-05T04:36:32.259Z,13.23
2017-04-05T04:37:30.782Z,24.23
2017-04-05T04:38:29.323Z,15.83
2017-04-05T04:39:27.830Z,10.37
2017-04-05T04:40:26.388Z,10.55
2017-04-05T04:41:24.937Z,10.52
2017-04-05T04:42:23.472Z,10.00
2017-04-05T04:43:21.976Z,10.25
2017-04-05T04:44:20.636Z,11.05
2017-04-05T04:45:19.175Z,10.15
2017-04-05T04:46:17.671Z,10.12
2017-04-05T04:47:16.303Z,11.52
2017-04-05T04:48:15.040Z,11.83
2017-04-05T04:49:13.590Z,12.30
2017-04-05T04:50:12.114Z,11.30
2017-04-05T04:51:10.657Z,11.55
2017-04-05T04:52:09.179Z,12.43
2017-04-05T04:53:07.760Z,12.20
2017-04-05T04:54:06.359Z,12.80
2017-04-05T04:55:04.979Z,14.97
2017-04-05T04:56:03.683Z,12.93
2017-04-05T04:57:02.290Z,11.38
2017-04-05T04:58:00.799Z,11.93
2017-04-05T04:58:59.363Z,13.25
2017-04-05T04:59:58.188Z,12.02
2017-04-05T05:00:56.788Z,12.12
2017-04-05T05:01:55.322Z,12.38
2017-04-05T05:02:53.830Z,11.90
2017-04-05T05:03:52.318Z,11.22
2017-04-05T05:04:50.832Z,11.10
2017-04-05T05:05:49.364Z,12.38
2017-04-05T05:06:47.881Z,12.57
2017-04-05T05:07:46.479Z,10.87
2017-04-05T05:08:45.118Z,13.28
2017-04-05T05:09:43.654Z,14.85
2017-04-05T05:10:42.372Z,12.50
2017-04-05T05:11:40.951Z,12.32
2017-04-05T05:12:39.520Z,11.15
2017-04-05T05:13:38.045Z,10.68
2017-04-05T05:14:36.592Z,11.12
2017-04-05T05:15:35.123Z,12.08
2017-04-05T05:16:33.636Z,12.47
2017-04-05T05:17:32.154Z,10.75
2017-04-05T05:18:30.665Z,10.32
2017-04-05T05:19:29.197Z,11.25
2017-04-05T05:20:27.827Z,10.08
2017-04-05T05:21:26.441Z,10.30
2017-04-05T05:22:25.030Z,12.03
2017-04-05T05:23:23.680Z,11.03
2017-04-05T05:24:22.314Z,10.88
2017-04-05T05:25:20.838Z,12.28
2017-04-05T05:26:19.323Z,11.08
2017-04-05T05:27:17.831Z,11.60
2017-04-05T05:28:16.356Z,10.72
2017-04-05T05:29:14.879Z,11.58
2017-04-05T05:30:13.428Z,11.50
2017-04-05T05:31:11.987Z,11.45
2017-04-05T05:32:10.504Z,11.97
2017-04-05T05:33:09.239Z,10.18
2017-04-05T05:34:07.859Z,11.28
2017-04-05T05:35:06.388Z,10.62
2017-04-05T05:36:04.927Z,11.63
2017-04-05T05:37:03.444Z,11.20
2017-04-05T05:38:02.122Z,10.82
2017-04-05T05:39:00.669Z,10.22
2017-04-05T05:39:59.271Z,11.07
2017-04-05T05:40:57.764Z,10.98
2017-04-05T05:41:56.251Z,29.72
2017-04-05T05:42:54.772Z,21.10
2017-04-05T05:43:53.398Z,11.90
2017-04-05T05:44:51.943Z,11.78
2017-04-05T05:45:50.438Z,11.80
2017-04-05T05:46:48.991Z,11.03
2017-04-05T05:47:47.579Z,12.75
2017-04-05T05:48:46.128Z,11.78
2017-04-05T05:49:44.744Z,12.08
2017-04-05T05:50:43.474Z,10.33
2017-04-05T05:51:42.048Z,12.08
2017-04-05T05:52:40.592Z,11.35
2017-04-05T05:53:39.228Z,11.98
2017-04-05T05:54:37.762Z,11.90
2017-04-05T05:55:36.320Z,11.37
2017-04-05T05:56:34.842Z,12.02
2017-04-05T05:57:33.486Z,12.22
2017-04-05T05:58:32.245Z,11.93
2017-04-05T05:59:32.579Z,11.37
2017-04-05T06:00:31.384Z,13.20
2017-04-05T06:01:29.903Z,11.12
2017-04-05T06:02:28.443Z,12.05
2017-04-05T06:03:26.960Z,11.67
2017-04-05T06:04:25.478Z,11.67
2017-04-05T06:05:24.043Z,12.30
2017-04-05T06:06:22.981Z,12.75
2017-04-05T06:07:22.047Z,11.60
2017-04-05T06:08:20.627Z,11.63
2017-04-05T06:09:19.176Z,11.87
2017-04-05T06:10:17.791Z,12.20
2017-04-05T06:11:16.388Z,13.07
2017-04-05T06:12:15.049Z,11.33
2017-04-05T06:13:13.706Z,12.00
2017-04-05T06:14:12.453Z,11.90
2017-04-05T06:15:14.927Z,13.00
2017-04-05T06:16:13.520Z,57.80
2017-04-05T06:17:12.060Z,75.92
2017-04-05T06:18:10.799Z,15.05
2017-04-05T06:19:09.544Z,17.67
2017-04-05T06:20:08.194Z,14.02
2017-04-05T06:21:06.924Z,13.30
2017-04-05T06:22:05.471Z,13.03
2017-04-05T06:23:04.087Z,12.12
2017-04-05T06:24:02.780Z,12.65
2017-04-05T06:25:01.392Z,11.63
2017-04-05T06:26:00.039Z,10.67
2017-04-05T06:26:58.571Z,12.43
2017-04-05T06:27:57.406Z,12.35
2017-04-05T06:28:56.157Z,11.80
2017-04-05T06:29:54.873Z,11.47
2017-04-05T06:30:53.466Z,11.60
2017-04-05T06:31:54.605Z,13.00
2017-04-05T06:32:53.381Z,10.63
2017-04-05T06:33:52.052Z,12.80
2017-04-05T06:34:50.777Z,12.47
2017-04-05T06:35:49.287Z,14.20
2017-04-05T06:36:47.823Z,14.20
2017-04-05T06:37:46.411Z,13.05
2017-04-05T06:38:45.310Z,15.52
2017-04-05T06:39:43.862Z,14.77
2017-04-05T06:40:42.416Z,15.38
2017-04-05T06:41:41.120Z,12.33
2017-04-05T06:42:39.675Z,11.95
2017-04-05T06:43:38.250Z,11.40
2017-04-05T06:44:36.783Z,11.82
2017-04-05T06:45:35.311Z,11.85
2017-04-05T06:46:34.252Z,12.22
2017-04-05T06:47:32.761Z,12.07
2017-04-05T06:48:31.296Z,12.52
2017-04-05T06:49:29.911Z,13.38
2017-04-05T06:50:28.504Z,12.08
2017-04-05T06:51:27.145Z,11.60
2017-04-05T06:52:25.744Z,12.23
2017-04-05T06:53:24.332Z,12.75
2017-04-05T06:54:22.839Z,12.35
2017-04-05T06:55:21.458Z,12.52
2017-04-05T06:56:19.988Z,12.45
2017-04-05T06:57:18.620Z,14.03
2017-04-05T06:58:17.252Z,12.37
2017-04-05T06:59:15.774Z,14.58
2017-04-05T07:00:14.554Z,11.77
2017-04-05T07:01:13.208Z,12.40
2017-04-05T07:02:11.728Z,13.20
2017-04-05T07:03:10.286Z,13.93
2017-04-05T07:04:08.919Z,14.63
2017-04-05T07:05:08.484Z,13.38
2017-04-05T07:06:07.063Z,13.22
2017-04-05T07:07:06.147Z,13.70
2017-04-05T07:08:04.695Z,13.53
2017-04-05T07:09:03.405Z,14.85
2017-04-05T07:10:02.405Z,13.17
2017-04-05T07:11:00.958Z,15.77
2017-04-05T07:11:59.486Z,15.57
2017-04-05T07:12:58.122Z,16.08
2017-04-05T07:13:56.656Z,14.07
2017-04-05T07:14:55.222Z,16.23
2017-04-05T07:15:53.850Z,15.75
2017-04-05T07:16:52.441Z,14.75
2017-04-05T07:17:50.949Z,16.90
2017-04-05T07:18:49.489Z,15.85
2017-04-05T07:19:48.047Z,17.55
2017-04-05T07:20:46.608Z,16.80
2017-04-05T07:21:45.112Z,17.13
2017-04-05T07:22:43.731Z,18.38
2017-04-05T07:23:42.216Z,16.08
2017-04-05T07:24:40.727Z,16.30
2017-04-05T07:25:39.240Z,18.30
2017-04-05T07:26:37.776Z,17.58
2017-04-05T07:27:36.339Z,18.57
2017-04-05T07:28:34.847Z,17.67
2017-04-05T07:29:33.358Z,19.15
2017-04-05T07:30:31.867Z,17.68
2017-04-05T07:31:30.381Z,19.42
2017-04-05T07:32:28.879Z,17.87
2017-04-05T07:33:27.429Z,18.15
2017-04-05T07:34:25.952Z,18.03
2017-04-05T07:35:24.575Z,19.42
2017-04-05T07:36:23.107Z,18.10
2017-04-05T07:37:21.652Z,20.55
2017-04-05T07:38:20.181Z,20.20
2017-04-05T07:39:18.751Z,20.15
2017-04-05T07:40:17.291Z,19.95
2017-04-05T07:41:15.808Z,20.57
2017-04-05T07:42:14.345Z,21.07
2017-04-05T07:43:13.025Z,20.43
2017-04-05T07:44:11.629Z,21.23
2017-04-05T07:45:10.273Z,19.95
2017-04-05T07:46:08.840Z,19.12
2017-04-05T07:47:07.467Z,22.50
2017-04-05T07:48:05.975Z,21.97
2017-04-05T07:49:04.758Z,23.02
2017-04-05T07:50:03.356Z,22.55
2017-04-05T07:51:01.896Z,24.87
2017-04-05T07:52:00.586Z,25.30
2017-04-05T07:52:59.128Z,23.98
2017-04-05T07:53:57.720Z,23.17
2017-04-05T07:54:56.299Z,25.93
2017-04-05T07:55:54.807Z,25.53
2017-04-05T07:56:53.325Z,26.58
2017-04-05T07:57:51.811Z,27.22
2017-04-05T07:58:50.340Z,26.63
2017-04-05T07:59:48.882Z,28.20
2017-04-05T08:00:47.399Z,25.67
2017-04-05T08:01:46.023Z,26.57
2017-04-05T08:02:44.651Z,28.38
2017-04-05T08:03:43.308Z,28.85
2017-04-05T08:04:41.941Z,27.55
2017-04-05T08:05:40.573Z,26.05
2017-04-05T08:06:39.184Z,27.48
2017-04-05T08:07:37.835Z,28.23
2017-04-05T08:08:36.461Z,27.65
2017-04-05T08:09:34.982Z,28.23
2017-04-05T08:10:33.528Z,27.98
2017-04-05T08:11:32.036Z,31.60
2017-04-05T08:12:30.941Z,28.70
2017-04-05T08:13:29.472Z,28.27
2017-04-05T08:14:27.983Z,29.50
2017-04-05T08:15:26.504Z,31.15
2017-04-05T08:16:25.060Z,29.27
2017-04-05T08:17:23.751Z,30.13
2017-04-05T08:18:22.281Z,29.07
2017-04-05T08:19:20.872Z,32.63
2017-04-05T08:20:19.416Z,32.03
2017-04-05T08:21:18.005Z,30.73
2017-04-05T08:22:16.588Z,31.75
2017-04-05T08:23:15.148Z,33.97
2017-04-05T08:24:13.748Z,34.15
2017-04-05T08:25:12.272Z,33.97
2017-04-05T08:26:10.812Z,32.45
2017-04-05T08:27:09.333Z,32.83
2017-04-05T08:28:07.894Z,36.17
2017-04-05T08:29:06.439Z,34.80
2017-04-05T08:30:05.004Z,33.93
2017-04-05T08:31:03.640Z,34.78
2017-04-05T08:32:02.248Z,37.53
2017-04-05T08:33:00.828Z,38.00
2017-04-05T08:33:59.342Z,36.83
2017-04-05T08:34:58.152Z,36.77
2017-04-05T08:35:56.708Z,36.98
2017-04-05T08:36:55.298Z,38.43
2017-04-05T08:37:53.855Z,38.05
2017-04-05T08:38:52.471Z,36.65
2017-04-05T08:39:50.992Z,39.45
2017-04-05T08:40:49.524Z,41.22
2017-04-05T08:41:48.093Z,39.17
2017-04-05T08:42:46.644Z,40.27
2017-04-05T08:43:45.162Z,39.88
2017-04-05T08:44:43.655Z,41.20
2017-04-05T08:45:42.295Z,41.62
2017-04-05T08:46:40.931Z,44.08
2017-04-05T08:47:39.571Z,52.30
2017-04-05T08:48:38.255Z,52.67
2017-04-05T08:49:36.899Z,52.53
2017-04-05T08:50:35.439Z,53.67
2017-04-05T08:51:33.969Z,57.52
2017-04-05T08:52:32.545Z,53.43
2017-04-05T08:53:31.068Z,51.55
2017-04-05T08:54:29.600Z,56.50
2017-04-05T08:55:28.130Z,52.27
2017-04-05T08:56:26.641Z,55.28
2017-04-05T08:57:25.147Z,54.68
2017-04-05T08:58:23.743Z,50.00
2017-04-05T08:59:22.307Z,54.45
2017-04-05T09:00:20.984Z,52.33
2017-04-05T09:01:19.620Z,51.23
2017-04-05T09:02:18.544Z,52.02
2017-04-05T09:03:17.229Z,50.08
2017-04-05T09:04:15.773Z,50.53
2017-04-05T09:05:14.311Z,49.50
2017-04-05T09:06:12.911Z,51.13
2017-04-05T09:07:11.507Z,51.65
2017-04-05T09:08:10.212Z,51.28
2017-04-05T09:09:08.716Z,50.38
2017-04-05T09:10:07.250Z,49.02
2017-04-05T09:11:05.792Z,53.42
2017-04-05T09:12:04.343Z,51.13
2017-04-05T09:13:02.894Z,51.70
2017-04-05T09:14:01.483Z,52.10
2017-04-05T09:15:00.094Z,52.25
2017-04-05T09:15:58.646Z,53.48
2017-04-05T09:16:57.189Z,48.90
2017-04-05T09:17:55.748Z,57.03
2017-04-05T09:18:54.287Z,53.62
2017-04-05T09:19:52.937Z,55.18
2017-04-05T09:20:51.479Z,57.58
2017-04-05T09:21:50.060Z,55.77
2017-04-05T09:22:48.691Z,58.43
2017-04-05T09:23:47.239Z,63.57
2017-04-05T09:24:45.924Z,63.22
2017-04-05T09:25:44.513Z,65.55
2017-04-05T09:26:43.023Z,71.10
2017-04-05T09:27:41.591Z,68.95
2017-04-05T09:28:40.228Z,70.28
2017-04-05T09:29:38.982Z,68.45
2017-04-05T09:30:37.499Z,69.40
2017-04-05T09:31:36.056Z,72.18
2017-04-05T09:32:34.614Z,75.83
2017-04-05T09:33:33.147Z,75.17
2017-04-05T09:34:31.648Z,76.23
2017-04-05T09:35:30.171Z,75.88
2017-04-05T09:36:28.741Z,74.07
2017-04-05T09:37:27.398Z,80.98
2017-04-05T09:38:26.043Z,76.23
2017-04-05T09:39:24.603Z,75.25
2017-04-05T09:40:23.888Z,75.73
2017-04-05T09:41:22.425Z,77.30
2017-04-05T09:42:20.939Z,76.80
2017-04-05T09:43:19.511Z,77.48
2017-04-05T09:44:18.107Z,82.27
2017-04-05T09:45:16.639Z,79.63
2017-04-05T09:46:15.170Z,82.10
2017-04-05T09:47:13.723Z,76.00
2017-04-05T09:48:12.264Z,82.57
2017-04-05T09:49:10.875Z,74.33
2017-04-05T09:50:09.528Z,72.95
2017-04-05T09:51:08.167Z,69.33
2017-04-05T09:52:06.767Z,70.28
2017-04-05T09:53:05.452Z,65.70
2017-04-05T09:54:03.987Z,69.82
2017-04-05T09:55:02.520Z,66.55
2017-04-05T09:56:01.088Z,68.70
2017-04-05T09:56:59.647Z,67.08
2017-04-05T09:57:58.208Z,66.92
2017-04-05T09:58:56.804Z,65.55
2017-04-05T09:59:55.411Z,66.02
2017-04-05T10:00:54.044Z,65.68
2017-04-05T10:01:52.660Z,60.93
2017-04-05T10:02:51.179Z,65.07
2017-04-05T10:03:49.695Z,62.97
2017-04-05T10:04:49.137Z,60.47
2017-04-05T10:05:47.677Z,62.10
2017-04-05T10:06:46.226Z,63.25
2017-04-05T10:07:44.750Z,58.08
2017-04-05T10:08:43.306Z,60.52
2017-04-05T10:09:41.893Z,60.55
2017-04-05T10:10:40.464Z,57.80
2017-04-05T10:11:39.015Z,60.07
2017-04-05T10:12:37.515Z,58.67
2017-04-05T10:13:36.031Z,62.77
2017-04-05T10:14:34.547Z,59.07
2017-04-05T10:15:33.083Z,63.13
2017-04-05T10:16:31.648Z,59.93
2017-04-05T10:17:30.186Z,59.80
2017-04-05T10:18:28.791Z,62.67
2017-04-05T10:19:27.398Z,60.27
2017-04-05T10:20:25.996Z,58.32
2017-04-05T10:21:24.704Z,61.57
2017-04-05T10:22:23.353Z,60.90
2017-04-05T10:23:21.917Z,60.18
2017-04-05T10:24:20.415Z,58.02
2017-04-05T10:25:18.961Z,58.15
2017-04-05T10:26:17.540Z,58.90
2017-04-05T10:27:16.060Z,57.63
2017-04-05T10:28:14.613Z,59.37
2017-04-05T10:29:13.163Z,55.12
2017-04-05T10:30:11.702Z,53.53
2017-04-05T10:31:10.267Z,55.87
2017-04-05T10:32:08.817Z,53.75
2017-04-05T10:33:07.447Z,52.98
2017-04-05T10:34:05.959Z,50.98
2017-04-05T10:35:04.642Z,50.57
2017-04-05T10:36:03.227Z,48.00
2017-04-05T10:37:01.758Z,47.87
2017-04-05T10:38:00.277Z,48.55
2017-04-05T10:38:58.810Z,50.78
2017-04-05T10:39:57.327Z,50.78
2017-04-05T10:40:55.862Z,48.47
2017-04-05T10:41:54.379Z,50.18
2017-04-05T10:42:52.923Z,47.38
2017-04-05T10:43:51.444Z,48.88
2017-04-05T10:44:49.987Z,47.42
2017-04-05T10:45:48.516Z,48.88
2017-04-05T10:46:47.106Z,47.18
2017-04-05T10:47:45.674Z,49.08
2017-04-05T10:48:44.239Z,44.63
2017-04-05T10:49:42.827Z,49.57
2017-04-05T10:50:41.373Z,52.52
2017-04-05T10:51:39.982Z,47.65
2017-04-05T10:52:38.492Z,48.80
2017-04-05T10:53:37.014Z,48.13
2017-04-05T10:54:35.628Z,51.97
2017-04-05T10:55:34.173Z,47.85
2017-04-05T10:56:32.719Z,49.48
2017-04-05T10:57:31.227Z,53.73
2017-04-05T10:58:29.723Z,46.65
2017-04-05T10:59:28.351Z,50.27
2017-04-05T11:00:26.922Z,47.13
2017-04-05T11:01:25.483Z,45.63
2017-04-05T11:02:24.442Z,50.05
2017-04-05T11:03:22.955Z,43.72
2017-04-05T11:04:21.591Z,40.15
2017-04-05T11:05:20.231Z,42.38
2017-04-05T11:06:18.774Z,41.50
2017-04-05T11:07:17.363Z,40.22
2017-04-05T11:08:15.935Z,40.08
2017-04-05T11:09:14.496Z,39.43
2017-04-05T11:10:12.998Z,35.18
2017-04-05T11:11:11.644Z,37.87
2017-04-05T11:12:10.235Z,39.72
2017-04-05T11:13:08.836Z,38.97
2017-04-05T11:14:07.338Z,39.58
2017-04-05T11:15:05.949Z,36.43
2017-04-05T11:16:04.475Z,34.75
2017-04-05T11:17:03.040Z,36.65
2017-04-05T11:18:01.673Z,36.52
2017-04-05T11:19:00.253Z,34.52
2017-04-05T11:19:58.766Z,34.32
2017-04-05T11:20:57.345Z,32.38
2017-04-05T11:21:55.907Z,32.12
2017-04-05T11:22:54.491Z,34.95
2017-04-05T11:23:53.111Z,34.07
2017-04-05T11:24:51.767Z,32.33
2017-04-05T11:25:50.363Z,27.53
2017-04-05T11:26:48.984Z,26.43
2017-04-05T11:27:47.575Z,28.22
2017-04-05T11:28:46.107Z,26.18
2017-04-05T11:29:44.611Z,24.70
2017-04-05T11:30:43.171Z,25.18
2017-04-05T11:31:41.744Z,23.02
2017-04-05T11:32:40.275Z,23.22
2017-04-05T11:33:38.823Z,22.82
2017-04-05T11:34:37.334Z,22.70
2017-04-05T11:35:35.996Z,22.18
2017-04-05T11:36:34.551Z,22.32
2017-04-05T11:37:33.157Z,20.68
2017-04-05T11:38:31.817Z,22.92
2017-04-05T11:39:30.412Z,20.73
2017-04-05T11:40:29.081Z,19.70
2017-04-05T11:41:27.644Z,19.43
2017-04-05T11:42:26.190Z,20.63
2017-04-05T11:43:24.810Z,20.52
2017-04-05T11:44:23.391Z,19.88
2017-04-05T11:45:22.701Z,13.82
2017-04-05T11:46:21.231Z,16.42
2017-04-05T11:47:19.789Z,15.33
2017-04-05T11:48:18.419Z,16.08
2017-04-05T11:49:16.976Z,16.10
2017-04-05T11:50:15.566Z,14.32
2017-04-05T11:51:14.203Z,15.50
2017-04-05T11:52:12.868Z,15.78
2017-04-05T11:53:11.482Z,14.63
2017-04-05T11:54:10.071Z,15.17
2017-04-05T11:55:08.642Z,14.75
2017-04-05T11:56:07.165Z,15.20
2017-04-05T11:57:05.915Z,15.45
2017-04-05T11:58:04.512Z,16.17
2017-04-05T11:59:03.075Z,16.83
2017-04-05T12:00:01.684Z,14.85
2017-04-05T12:01:00.251Z,15.27
2017-04-05T12:01:58.776Z,16.68
2017-04-05T12:02:57.296Z,15.03
2017-04-05T12:03:55.816Z,14.30
2017-04-05T12:04:54.348Z,15.10
2017-04-05T12:05:52.883Z,15.83
2017-04-05T12:06:51.538Z,16.05
2017-04-05T12:07:50.163Z,14.32
2017-04-05T12:08:48.816Z,14.32
2017-04-05T12:09:47.468Z,14.75
2017-04-05T12:10:45.972Z,14.75
2017-04-05T12:11:44.519Z,14.67
2017-04-05T12:12:43.041Z,15.33
2017-04-05T12:13:41.623Z,14.45
2017-04-05T12:14:40.152Z,15.42
2017-04-05T12:15:38.699Z,13.35
2017-04-05T12:16:37.234Z,15.18
2017-04-05T12:17:35.831Z,14.95
2017-04-05T12:18:34.328Z,14.75
2017-04-05T12:19:32.876Z,13.98
2017-04-05T12:20:31.515Z,14.28
2017-04-05T12:21:30.289Z,14.18
2017-04-05T12:22:28.878Z,13.58
2017-04-05T12:23:27.451Z,13.13
2017-04-05T12:24:25.983Z,12.22
2017-04-05T12:25:24.558Z,11.68
2017-04-05T12:26:23.227Z,12.13
2017-04-05T12:27:21.822Z,19.77
2017-04-05T12:28:20.426Z,13.47
2017-04-05T12:29:19.058Z,12.75
2017-04-05T12:30:17.599Z,13.77
2017-04-05T12:31:16.131Z,11.45
2017-04-05T12:32:14.699Z,13.25
2017-04-05T12:33:13.233Z,12.32
2017-04-05T12:34:11.823Z,11.70
2017-04-05T12:35:10.387Z,13.47
2017-04-05T12:36:08.929Z,12.05